AUA174 LOWS-LOWW
Flight info
| Callsign | AUA174 |
|---|---|
| Flight time | 0h 30m |
| Altitude | 25000 |
| Route | NEMAL4A NEMAL NEMAL2W |
| Aircraft | A320/M-SDE3FGHIRWY/LB1 |
Departure
| Time | 2026-04-23 14:33 |
|---|---|
| Airport | Salzburg Airport (LOWS) |
Arrival
| Time | 2026-04-23 15:04 |
|---|---|
| Airport | Vienna International Airport (LOWW) |
| Time | Latitude | Longitude | Altitude | Speed | Heading |
|---|---|---|---|---|---|
| 2026-04-23 14:02 | 47.79168 | 12.99897 | 1422 ft | 0 kts | 281° |
| 2026-04-23 14:22 | 47.79167 | 12.99898 | 1422 ft | 2 kts | 281° |
| 2026-04-23 14:22 | 47.79163 | 12.99935 | 1422 ft | 4 kts | 277° |
| 2026-04-23 14:23 | 47.79161 | 12.99975 | 1422 ft | 4 kts | 266° |
| 2026-04-23 14:23 | 47.79167 | 13.00009 | 1422 ft | 4 kts | 217° |
| 2026-04-23 14:23 | 47.79176 | 13.00014 | 1422 ft | 1 kts | 157° |
| 2026-04-23 14:23 | 47.79178 | 13.00012 | 1422 ft | 0 kts | 157° |
| 2026-04-23 14:26 | 47.79173 | 13.00016 | 1422 ft | 4 kts | 157° |
| 2026-04-23 14:27 | 47.79145 | 13.00033 | 1422 ft | 4 kts | 157° |
| 2026-04-23 14:27 | 47.79113 | 13.00054 | 1422 ft | 6 kts | 157° |
| 2026-04-23 14:27 | 47.79060 | 13.00087 | 1422 ft | 9 kts | 157° |
| 2026-04-23 14:27 | 47.79005 | 13.00122 | 1422 ft | 8 kts | 157° |
| 2026-04-23 14:28 | 47.78961 | 13.00175 | 1422 ft | 9 kts | 115° |
| 2026-04-23 14:28 | 47.78955 | 13.00275 | 1422 ft | 10 kts | 92° |
| 2026-04-23 14:28 | 47.78938 | 13.00373 | 1420 ft | 13 kts | 136° |
| 2026-04-23 14:28 | 47.78842 | 13.00436 | 1420 ft | 15 kts | 157° |
| 2026-04-23 14:29 | 47.78752 | 13.00493 | 1420 ft | 14 kts | 157° |
| 2026-04-23 14:29 | 47.78670 | 13.00545 | 1421 ft | 12 kts | 157° |
| 2026-04-23 14:29 | 47.78592 | 13.00594 | 1422 ft | 12 kts | 157° |
| 2026-04-23 14:29 | 47.78505 | 13.00648 | 1421 ft | 14 kts | 157° |
| 2026-04-23 14:30 | 47.78419 | 13.00703 | 1422 ft | 13 kts | 157° |
| 2026-04-23 14:30 | 47.78332 | 13.00757 | 1421 ft | 13 kts | 157° |
| 2026-04-23 14:30 | 47.78249 | 13.00811 | 1421 ft | 13 kts | 154° |
| 2026-04-23 14:30 | 47.78188 | 13.00905 | 1419 ft | 14 kts | 113° |
| 2026-04-23 14:31 | 47.78203 | 13.01052 | 1418 ft | 14 kts | 61° |
| 2026-04-23 14:31 | 47.78259 | 13.01078 | 1420 ft | 8 kts | 333° |
| 2026-04-23 14:31 | 47.78324 | 13.01034 | 1417 ft | 0 kts | 337° |
| 2026-04-23 14:32 | 47.78325 | 13.01034 | 1417 ft | 1 kts | 337° |
| 2026-04-23 14:32 | 47.78448 | 13.00956 | 1420 ft | 58 kts | 336° |
| 2026-04-23 14:33 | 47.79126 | 13.00526 | 1423 ft | 150 kts | 337° |
| 2026-04-23 14:33 | 47.80202 | 12.99841 | 2080 ft | 174 kts | 333° |
| 2026-04-23 14:33 | 47.81345 | 12.99112 | 3076 ft | 186 kts | 334° |
| 2026-04-23 14:33 | 47.82759 | 12.98728 | 3290 ft | 232 kts | 4° |
| 2026-04-23 14:34 | 47.84347 | 12.99742 | 3857 ft | 262 kts | 30° |
| 2026-04-23 14:34 | 47.85832 | 13.01389 | 4991 ft | 267 kts | 36° |
| 2026-04-23 14:34 | 47.87272 | 13.03161 | 6158 ft | 270 kts | 37° |
| 2026-04-23 14:34 | 47.88703 | 13.04913 | 7348 ft | 270 kts | 36° |
| 2026-04-23 14:35 | 47.90176 | 13.06648 | 8499 ft | 270 kts | 35° |
| 2026-04-23 14:35 | 47.91540 | 13.08593 | 9665 ft | 275 kts | 49° |
| 2026-04-23 14:35 | 47.92479 | 13.11115 | 10750 ft | 283 kts | 66° |
| 2026-04-23 14:35 | 47.92863 | 13.14034 | 11733 ft | 296 kts | 83° |
| 2026-04-23 14:36 | 47.92829 | 13.17240 | 12212 ft | 322 kts | 87° |
| 2026-04-23 14:36 | 47.92740 | 13.20699 | 12665 ft | 343 kts | 88° |
| 2026-04-23 14:36 | 47.92624 | 13.24291 | 13496 ft | 351 kts | 88° |
| 2026-04-23 14:36 | 47.92496 | 13.27950 | 14337 ft | 355 kts | 88° |
| 2026-04-23 14:37 | 47.92368 | 13.31653 | 15165 ft | 359 kts | 88° |
| 2026-04-23 14:37 | 47.92247 | 13.35395 | 15984 ft | 363 kts | 88° |
| 2026-04-23 14:37 | 47.92130 | 13.39168 | 16817 ft | 366 kts | 88° |
| 2026-04-23 14:37 | 47.92014 | 13.42977 | 17598 ft | 370 kts | 88° |
| 2026-04-23 14:38 | 47.91898 | 13.46823 | 18396 ft | 373 kts | 88° |
| 2026-04-23 14:38 | 47.91781 | 13.50713 | 19118 ft | 377 kts | 87° |
| 2026-04-23 14:38 | 47.91715 | 13.54628 | 19851 ft | 379 kts | 86° |
| 2026-04-23 14:38 | 47.91698 | 13.58567 | 20595 ft | 381 kts | 85° |
| 2026-04-23 14:39 | 47.91703 | 13.62473 | 21351 ft | 383 kts | 85° |
| 2026-04-23 14:39 | 47.91711 | 13.66461 | 22100 ft | 386 kts | 85° |
| 2026-04-23 14:39 | 47.91711 | 13.70477 | 22780 ft | 390 kts | 85° |
| 2026-04-23 14:39 | 47.91700 | 13.74529 | 23452 ft | 393 kts | 85° |
| 2026-04-23 14:40 | 47.91682 | 13.78628 | 24072 ft | 396 kts | 85° |
| 2026-04-23 14:40 | 47.91659 | 13.82743 | 24623 ft | 398 kts | 85° |
| 2026-04-23 14:40 | 47.91629 | 13.86863 | 25051 ft | 398 kts | 85° |
| 2026-04-23 14:40 | 47.91599 | 13.90989 | 25205 ft | 397 kts | 85° |
| 2026-04-23 14:41 | 47.91570 | 13.95138 | 25247 ft | 403 kts | 85° |
| 2026-04-23 14:41 | 47.91540 | 13.99330 | 25248 ft | 405 kts | 85° |
| 2026-04-23 14:41 | 47.91507 | 14.03535 | 25241 ft | 405 kts | 85° |
| 2026-04-23 14:41 | 47.91469 | 14.07737 | 25236 ft | 405 kts | 85° |
| 2026-04-23 14:42 | 47.91429 | 14.11939 | 25252 ft | 406 kts | 85° |
| 2026-04-23 14:42 | 47.91392 | 14.16152 | 25237 ft | 407 kts | 85° |
| 2026-04-23 14:42 | 47.91355 | 14.20359 | 25229 ft | 407 kts | 85° |
| 2026-04-23 14:42 | 47.91316 | 14.24580 | 25228 ft | 406 kts | 85° |
| 2026-04-23 14:43 | 47.91281 | 14.28776 | 25234 ft | 406 kts | 85° |
| 2026-04-23 14:43 | 47.91236 | 14.32986 | 25233 ft | 407 kts | 85° |
| 2026-04-23 14:43 | 47.91186 | 14.37203 | 25226 ft | 407 kts | 85° |
| 2026-04-23 14:43 | 47.91136 | 14.41371 | 25227 ft | 407 kts | 85° |
| 2026-04-23 14:44 | 47.91087 | 14.45591 | 25222 ft | 407 kts | 85° |
| 2026-04-23 14:44 | 47.91036 | 14.49816 | 25078 ft | 407 kts | 86° |
| 2026-04-23 14:44 | 47.90984 | 14.54025 | 24846 ft | 406 kts | 86° |
| 2026-04-23 14:44 | 47.90931 | 14.58245 | 24609 ft | 407 kts | 86° |
| 2026-04-23 14:45 | 47.90878 | 14.62463 | 24371 ft | 407 kts | 86° |
| 2026-04-23 14:45 | 47.90820 | 14.66686 | 24136 ft | 407 kts | 86° |
| 2026-04-23 14:45 | 47.90763 | 14.70899 | 23903 ft | 407 kts | 86° |
| 2026-04-23 14:45 | 47.90704 | 14.75110 | 23648 ft | 406 kts | 86° |
| 2026-04-23 14:46 | 47.90641 | 14.79311 | 23368 ft | 405 kts | 86° |
| 2026-04-23 14:46 | 47.90578 | 14.83513 | 23094 ft | 404 kts | 86° |
| 2026-04-23 14:46 | 47.90514 | 14.87689 | 22823 ft | 403 kts | 86° |
| 2026-04-23 14:46 | 47.90451 | 14.91851 | 22542 ft | 401 kts | 86° |
| 2026-04-23 14:47 | 47.90386 | 14.96016 | 22278 ft | 400 kts | 86° |
| 2026-04-23 14:47 | 47.90322 | 15.00093 | 21963 ft | 395 kts | 86° |
| 2026-04-23 14:47 | 47.90251 | 15.04162 | 21396 ft | 390 kts | 87° |
| 2026-04-23 14:47 | 47.90177 | 15.08185 | 20841 ft | 385 kts | 86° |
| 2026-04-23 14:48 | 47.90105 | 15.12184 | 20607 ft | 389 kts | 87° |
| 2026-04-23 14:48 | 47.90034 | 15.16226 | 20194 ft | 391 kts | 86° |
| 2026-04-23 14:48 | 47.89963 | 15.20283 | 19530 ft | 390 kts | 86° |
| 2026-04-23 14:48 | 47.89892 | 15.24315 | 18876 ft | 390 kts | 87° |
| 2026-04-23 14:49 | 47.89816 | 15.28357 | 18219 ft | 388 kts | 86° |
| 2026-04-23 14:49 | 47.89740 | 15.32353 | 17727 ft | 397 kts | 86° |
| 2026-04-23 14:49 | 47.89664 | 15.36491 | 16967 ft | 401 kts | 87° |
| 2026-04-23 14:49 | 47.89588 | 15.40746 | 16429 ft | 416 kts | 88° |
| 2026-04-23 14:50 | 47.89511 | 15.45056 | 15813 ft | 414 kts | 88° |
| 2026-04-23 14:50 | 47.89427 | 15.49336 | 15214 ft | 411 kts | 87° |
| 2026-04-23 14:50 | 47.89381 | 15.52153 | 14831 ft | 409 kts | 85° |
| 2026-04-23 14:50 | 47.89332 | 15.56368 | 14237 ft | 404 kts | 85° |
| 2026-04-23 14:51 | 47.89300 | 15.60557 | 13604 ft | 403 kts | 85° |
| 2026-04-23 14:51 | 47.89274 | 15.64720 | 13020 ft | 400 kts | 85° |
| 2026-04-23 14:51 | 47.89247 | 15.68856 | 12445 ft | 397 kts | 85° |
| 2026-04-23 14:51 | 47.89214 | 15.72964 | 11875 ft | 396 kts | 85° |
| 2026-04-23 14:52 | 47.89175 | 15.77045 | 11388 ft | 387 kts | 85° |
| 2026-04-23 14:52 | 47.89126 | 15.80948 | 11270 ft | 367 kts | 85° |
| 2026-04-23 14:52 | 47.89074 | 15.84651 | 11148 ft | 348 kts | 85° |
| 2026-04-23 14:52 | 47.89025 | 15.88163 | 11019 ft | 330 kts | 85° |
| 2026-04-23 14:53 | 47.88981 | 15.91498 | 10898 ft | 312 kts | 84° |
| 2026-04-23 14:53 | 47.88940 | 15.94626 | 10595 ft | 296 kts | 84° |
| 2026-04-23 14:53 | 47.88909 | 15.97668 | 10307 ft | 292 kts | 83° |
| 2026-04-23 14:53 | 47.88880 | 16.00676 | 10066 ft | 289 kts | 84° |
| 2026-04-23 14:54 | 47.88850 | 16.03627 | 9906 ft | 288 kts | 83° |
| 2026-04-23 14:54 | 47.88819 | 16.06611 | 9768 ft | 288 kts | 84° |
| 2026-04-23 14:54 | 47.88784 | 16.09594 | 9635 ft | 288 kts | 83° |
| 2026-04-23 14:54 | 47.88746 | 16.12579 | 9486 ft | 288 kts | 83° |
| 2026-04-23 14:55 | 47.88706 | 16.15572 | 9355 ft | 288 kts | 83° |
| 2026-04-23 14:55 | 47.88664 | 16.18549 | 9218 ft | 288 kts | 83° |
| 2026-04-23 14:55 | 47.88619 | 16.21527 | 9047 ft | 288 kts | 83° |
| 2026-04-23 14:55 | 47.88574 | 16.24514 | 8787 ft | 287 kts | 84° |
| 2026-04-23 14:56 | 47.88528 | 16.27485 | 8519 ft | 287 kts | 83° |
| 2026-04-23 14:56 | 47.88483 | 16.30464 | 8234 ft | 288 kts | 84° |
| 2026-04-23 14:56 | 47.88437 | 16.33437 | 7958 ft | 287 kts | 84° |
| 2026-04-23 14:56 | 47.88392 | 16.36369 | 7687 ft | 286 kts | 84° |
| 2026-04-23 14:57 | 47.88346 | 16.39333 | 7413 ft | 286 kts | 84° |
| 2026-04-23 14:57 | 47.88408 | 16.42223 | 7141 ft | 271 kts | 73° |
| 2026-04-23 14:57 | 47.88852 | 16.44876 | 6894 ft | 259 kts | 66° |
| 2026-04-23 14:57 | 47.89343 | 16.47434 | 6648 ft | 254 kts | 66° |
| 2026-04-23 14:58 | 47.89813 | 16.49932 | 6403 ft | 247 kts | 66° |
| 2026-04-23 14:58 | 47.90270 | 16.52371 | 6160 ft | 241 kts | 66° |
| 2026-04-23 14:58 | 47.90722 | 16.54760 | 5888 ft | 240 kts | 66° |
| 2026-04-23 14:58 | 47.91177 | 16.57175 | 5448 ft | 244 kts | 66° |
| 2026-04-23 14:59 | 47.91677 | 16.59588 | 5035 ft | 241 kts | 58° |
| 2026-04-23 14:59 | 47.92555 | 16.61645 | 4634 ft | 231 kts | 41° |
| 2026-04-23 14:59 | 47.93731 | 16.63090 | 4295 ft | 212 kts | 24° |
| 2026-04-23 14:59 | 47.95067 | 16.63932 | 3766 ft | 203 kts | 8° |
| 2026-04-23 15:00 | 47.96429 | 16.64156 | 3243 ft | 197 kts | 353° |
| 2026-04-23 15:00 | 47.97750 | 16.63816 | 2903 ft | 188 kts | 342° |
| 2026-04-23 15:00 | 47.98984 | 16.63297 | 2628 ft | 180 kts | 342° |
| 2026-04-23 15:00 | 48.00145 | 16.62810 | 2394 ft | 163 kts | 342° |
| 2026-04-23 15:01 | 48.01160 | 16.62384 | 2195 ft | 141 kts | 342° |
| 2026-04-23 15:01 | 48.02046 | 16.62011 | 2017 ft | 125 kts | 342° |
| 2026-04-23 15:01 | 48.02857 | 16.61669 | 1848 ft | 118 kts | 341° |
| 2026-04-23 15:01 | 48.03639 | 16.61347 | 1680 ft | 116 kts | 341° |
| 2026-04-23 15:02 | 48.04409 | 16.61014 | 1515 ft | 117 kts | 341° |
| 2026-04-23 15:02 | 48.05180 | 16.60692 | 1376 ft | 116 kts | 342° |
| 2026-04-23 15:02 | 48.05963 | 16.60379 | 1194 ft | 118 kts | 341° |
| 2026-04-23 15:02 | 48.06741 | 16.60039 | 1041 ft | 116 kts | 341° |
| 2026-04-23 15:03 | 48.07503 | 16.59715 | 908 ft | 115 kts | 339° |
| 2026-04-23 15:03 | 48.08281 | 16.59390 | 776 ft | 119 kts | 340° |
| 2026-04-23 15:03 | 48.09064 | 16.59057 | 639 ft | 115 kts | 339° |
| 2026-04-23 15:03 | 48.09761 | 16.58751 | 621 ft | 91 kts | 343° |
| 2026-04-23 15:04 | 48.10139 | 16.58596 | 622 ft | 28 kts | 343° |
| 2026-04-23 15:04 | 48.10306 | 16.58522 | 618 ft | 22 kts | 340° |
| 2026-04-23 15:04 | 48.10413 | 16.58387 | 621 ft | 19 kts | 303° |
| 2026-04-23 15:04 | 48.10476 | 16.58221 | 615 ft | 18 kts | 299° |
| 2026-04-23 15:05 | 48.10564 | 16.58137 | 613 ft | 12 kts | 344° |
| 2026-04-23 15:05 | 48.10642 | 16.58104 | 618 ft | 12 kts | 344° |
| 2026-04-23 15:05 | 48.10731 | 16.58067 | 617 ft | 14 kts | 344° |
| 2026-04-23 15:05 | 48.10827 | 16.58026 | 609 ft | 15 kts | 344° |
| 2026-04-23 15:06 | 48.10933 | 16.57981 | 616 ft | 16 kts | 344° |
| 2026-04-23 15:06 | 48.11043 | 16.57935 | 619 ft | 17 kts | 344° |
| 2026-04-23 15:06 | 48.11163 | 16.57884 | 617 ft | 18 kts | 344° |
| 2026-04-23 15:06 | 48.11284 | 16.57833 | 613 ft | 18 kts | 344° |
| 2026-04-23 15:07 | 48.11408 | 16.57779 | 609 ft | 19 kts | 342° |
| 2026-04-23 15:07 | 48.11536 | 16.57726 | 617 ft | 19 kts | 344° |
| 2026-04-23 15:07 | 48.11658 | 16.57674 | 611 ft | 18 kts | 344° |
| 2026-04-23 15:07 | 48.11779 | 16.57623 | 611 ft | 17 kts | 344° |
| 2026-04-23 15:08 | 48.11827 | 16.57499 | 617 ft | 17 kts | 254° |
| 2026-04-23 15:08 | 48.11813 | 16.57341 | 612 ft | 15 kts | 292° |
| 2026-04-23 15:08 | 48.11856 | 16.57195 | 609 ft | 16 kts | 276° |
| 2026-04-23 15:09 | 48.11867 | 16.57012 | 616 ft | 5 kts | 207° |
| 2026-04-23 15:09 | 48.11836 | 16.56992 | 609 ft | 3 kts | 205° |
| 2026-04-23 15:09 | 48.11826 | 16.56985 | 617 ft | 0 kts | 205° |